createdAt,value
2019-05-19T00:00:25.844Z,70.27
2019-05-19T00:02:54.322Z,82.73
2019-05-19T00:05:22.839Z,74.17
2019-05-19T00:07:52.358Z,72.50
2019-05-19T00:10:20.792Z,73.17
2019-05-19T00:12:49.713Z,69.00
2019-05-19T00:15:18.153Z,73.83
2019-05-19T00:17:46.595Z,73.03
2019-05-19T00:20:16.177Z,70.20
2019-05-19T00:22:44.632Z,71.27
2019-05-19T00:25:13.506Z,71.97
2019-05-19T00:27:41.970Z,71.57
2019-05-19T00:30:10.937Z,69.70
2019-05-19T00:32:39.392Z,78.27
2019-05-19T00:35:08.130Z,70.70
2019-05-19T00:37:36.589Z,79.63
2019-05-19T00:40:06.653Z,76.23
2019-05-19T00:42:35.116Z,84.73
2019-05-19T00:45:07.993Z,80.23
2019-05-19T00:47:36.666Z,82.80
2019-05-19T00:50:08.721Z,87.50
2019-05-19T00:52:37.185Z,83.63
2019-05-19T00:55:06.383Z,87.50
2019-05-19T00:57:36.273Z,82.67
2019-05-19T01:00:08.126Z,82.90
2019-05-19T01:02:36.588Z,82.67
2019-05-19T01:05:10.022Z,84.77
2019-05-19T01:07:38.473Z,76.57
2019-05-19T01:10:09.926Z,82.03
2019-05-19T01:12:38.512Z,74.37
2019-05-19T01:15:08.520Z,75.53
2019-05-19T01:17:37.018Z,83.87
2019-05-19T01:20:06.813Z,75.93
2019-05-19T01:22:35.241Z,79.53
2019-05-19T01:25:05.049Z,84.93
2019-05-19T01:27:33.472Z,77.13
2019-05-19T01:30:01.937Z,79.13
2019-05-19T01:32:31.209Z,74.17
2019-05-19T01:34:59.690Z,63.50
2019-05-19T01:37:28.197Z,67.30
2019-05-19T01:39:56.688Z,57.60
2019-05-19T01:42:25.132Z,58.80
2019-05-19T01:44:53.580Z,58.80
2019-05-19T01:47:22.077Z,58.23
2019-05-19T01:49:50.514Z,56.97
2019-05-19T01:52:18.955Z,58.20
2019-05-19T01:54:47.537Z,55.13
2019-05-19T01:57:15.953Z,61.00
2019-05-19T01:59:44.397Z,55.30
2019-05-19T02:02:12.842Z,60.37
2019-05-19T02:04:41.290Z,58.30
2019-05-19T02:07:09.729Z,55.87
2019-05-19T02:09:38.173Z,45.87
2019-05-19T02:12:06.614Z,47.70
2019-05-19T02:14:35.053Z,50.63
2019-05-19T02:17:03.501Z,57.13
2019-05-19T02:19:31.925Z,50.23
2019-05-19T02:22:00.378Z,46.83
2019-05-19T02:24:28.805Z,46.10
2019-05-19T02:26:57.251Z,48.00
2019-05-19T02:29:25.691Z,46.73
2019-05-19T02:31:54.173Z,46.48
2019-05-19T02:34:22.621Z,45.03
2019-05-19T02:36:51.078Z,46.37
2019-05-19T02:39:19.530Z,47.27
2019-05-19T02:41:49.697Z,47.43
2019-05-19T02:44:20.276Z,48.83
2019-05-19T02:46:50.169Z,43.90
2019-05-19T02:49:19.141Z,47.17
2019-05-19T02:51:49.425Z,51.23
2019-05-19T02:54:18.659Z,39.53
2019-05-19T02:56:48.233Z,45.53
2019-05-19T02:59:18.202Z,39.90
2019-05-19T03:02:03.392Z,43.27
2019-05-19T03:04:32.217Z,41.93
2019-05-19T03:07:00.679Z,42.90
2019-05-19T03:09:29.120Z,40.40
2019-05-19T03:11:57.561Z,39.40
2019-05-19T03:14:26.260Z,35.87
2019-05-19T03:16:54.712Z,42.90
2019-05-19T03:19:23.205Z,42.90
2019-05-19T03:21:51.659Z,46.37
2019-05-19T03:24:20.115Z,37.47
2019-05-19T03:26:49.357Z,41.67
2019-05-19T03:29:19.475Z,31.70
2019-05-19T03:31:52.201Z,40.90
2019-05-19T03:34:20.703Z,36.03
2019-05-19T03:36:49.136Z,36.70
2019-05-19T03:39:17.574Z,41.10
2019-05-19T03:41:46.024Z,34.73
2019-05-19T03:44:14.466Z,33.27
2019-05-19T03:46:43.434Z,35.80
2019-05-19T03:49:11.881Z,35.70
2019-05-19T03:51:40.324Z,32.90
2019-05-19T03:54:08.762Z,32.20
2019-05-19T03:56:37.196Z,34.95
2019-05-19T03:59:05.652Z,33.00
2019-05-19T04:01:34.101Z,33.77
2019-05-19T04:04:02.626Z,28.90
2019-05-19T04:06:31.045Z,30.60
2019-05-19T04:08:59.487Z,27.97
2019-05-19T04:11:29.541Z,28.63
2019-05-19T04:13:58.009Z,30.20
2019-05-19T04:16:26.480Z,29.23
2019-05-19T04:18:54.930Z,31.40
2019-05-19T04:21:23.509Z,35.77
2019-05-19T04:23:51.968Z,27.50
2019-05-19T04:26:20.398Z,26.60
2019-05-19T04:28:48.842Z,30.53
2019-05-19T04:31:18.505Z,32.47
2019-05-19T04:33:46.997Z,30.70
2019-05-19T04:36:15.436Z,29.60
2019-05-19T04:38:43.885Z,43.80
2019-05-19T04:41:12.365Z,28.57
2019-05-19T04:43:40.838Z,38.30
2019-05-19T04:46:09.274Z,27.60
2019-05-19T04:48:37.738Z,24.03
2019-05-19T04:51:06.161Z,32.67
2019-05-19T04:53:34.610Z,44.70
2019-05-19T04:56:04.709Z,24.97
2019-05-19T04:58:33.243Z,31.17
2019-05-19T05:01:03.243Z,23.83
2019-05-19T05:03:31.682Z,25.73
2019-05-19T05:06:00.132Z,30.60
2019-05-19T05:08:30.657Z,26.03
2019-05-19T05:10:58.744Z,27.10
2019-05-19T05:13:27.501Z,25.27
2019-05-19T05:15:55.943Z,27.50
2019-05-19T05:18:24.369Z,29.63
2019-05-19T05:20:52.810Z,25.00
2019-05-19T05:23:21.270Z,29.03
2019-05-19T05:25:49.781Z,29.30
2019-05-19T05:28:18.221Z,27.10
2019-05-19T05:30:46.652Z,27.30
2019-05-19T05:33:15.094Z,23.67
2019-05-19T05:35:43.577Z,32.73
2019-05-19T05:38:12.069Z,27.80
2019-05-19T05:40:40.512Z,30.30
2019-05-19T05:43:08.946Z,25.47
2019-05-19T05:45:37.385Z,27.00
2019-05-19T05:48:05.819Z,28.07
2019-05-19T05:50:34.270Z,26.07
2019-05-19T05:53:02.728Z,28.40
2019-05-19T05:55:31.234Z,31.30
2019-05-19T05:57:59.717Z,26.07
2019-05-19T06:00:28.218Z,30.60
2019-05-19T06:02:56.654Z,29.30
2019-05-19T06:05:25.093Z,28.30
2019-05-19T06:07:55.602Z,25.37
2019-05-19T06:10:24.076Z,25.80
2019-05-19T06:12:52.526Z,29.77
2019-05-19T06:15:21.222Z,32.57
2019-05-19T06:17:49.676Z,30.20
2019-05-19T06:20:18.153Z,29.80
2019-05-19T06:22:56.056Z,31.33
2019-05-19T06:25:16.805Z,29.77
2019-05-19T06:27:47.713Z,26.63
2019-05-19T06:30:16.955Z,31.67
2019-05-19T06:32:50.399Z,29.50
2019-05-19T06:35:18.839Z,26.13
2019-05-19T06:37:47.432Z,28.20
2019-05-19T06:40:17.265Z,24.33
2019-05-19T06:42:45.721Z,37.87
2019-05-19T06:45:16.181Z,25.43
2019-05-19T06:47:44.858Z,24.63
2019-05-19T06:50:13.853Z,24.33
2019-05-19T06:52:42.345Z,26.57
2019-05-19T06:55:11.545Z,27.93
2019-05-19T06:57:40.047Z,28.03
2019-05-19T07:00:11.975Z,24.37
2019-05-19T07:02:40.513Z,28.20
2019-05-19T07:05:09.286Z,29.60
2019-05-19T07:07:39.152Z,24.10
2019-05-19T07:10:08.935Z,25.43
2019-05-19T07:12:37.545Z,27.53
2019-05-19T07:15:08.370Z,25.27
2019-05-19T07:17:36.844Z,28.60
2019-05-19T07:20:06.091Z,23.63
2019-05-19T07:22:37.448Z,24.67
2019-05-19T07:25:06.816Z,29.33
2019-05-19T07:27:35.788Z,25.37
2019-05-19T07:30:09.388Z,23.97
2019-05-19T07:32:37.910Z,27.10
2019-05-19T07:35:07.421Z,23.30
2019-05-19T07:37:35.874Z,19.77
2019-05-19T07:40:06.541Z,26.10
2019-05-19T07:42:35.145Z,25.83
2019-05-19T07:45:04.312Z,21.30
2019-05-19T07:47:38.034Z,22.07
2019-05-19T07:50:06.718Z,20.73
2019-05-19T07:52:35.247Z,22.10
2019-05-19T07:55:06.528Z,23.00
2019-05-19T07:57:34.965Z,20.90
2019-05-19T08:00:04.789Z,22.83
2019-05-19T08:02:33.501Z,21.47
2019-05-19T08:05:02.018Z,19.73
2019-05-19T08:07:30.765Z,22.13
2019-05-19T08:09:59.217Z,19.87
2019-05-19T08:15:10.338Z,20.03
2019-05-19T08:17:38.787Z,20.50
2019-05-19T08:20:07.965Z,18.30
2019-05-19T08:22:36.396Z,18.37
2019-05-19T08:25:06.849Z,19.70
2019-05-19T08:27:35.350Z,20.43
2019-05-19T08:30:05.803Z,23.33
2019-05-19T08:32:34.238Z,21.23
2019-05-19T08:35:04.382Z,20.47
2019-05-19T08:37:33.053Z,15.90
2019-05-19T08:44:26.940Z,17.67
2019-05-19T08:46:55.407Z,19.80
2019-05-19T08:49:23.942Z,17.93
2019-05-19T08:51:52.464Z,19.17
2019-05-19T08:54:20.901Z,17.30
2019-05-19T08:56:49.345Z,19.10
2019-05-19T08:59:17.843Z,21.33
2019-05-19T09:01:46.307Z,19.50
2019-05-19T09:04:14.747Z,19.70
2019-05-19T09:06:43.206Z,17.13
2019-05-19T09:09:11.814Z,19.60
2019-05-19T09:11:40.417Z,19.93
2019-05-19T09:14:10.258Z,21.30
2019-05-19T09:16:38.705Z,17.40
2019-05-19T09:19:07.234Z,18.03
2019-05-19T09:21:35.738Z,23.33
2019-05-19T09:24:05.621Z,20.43
2019-05-19T09:26:34.061Z,19.20
2019-05-19T09:29:02.506Z,18.17
2019-05-19T09:31:30.951Z,20.73
2019-05-19T09:33:59.407Z,19.27
2019-05-19T09:36:27.843Z,18.37
2019-05-19T09:38:56.283Z,16.73
2019-05-19T09:41:24.955Z,18.77
2019-05-19T09:43:53.427Z,17.60
2019-05-19T09:46:21.858Z,16.77
2019-05-19T09:48:51.972Z,17.10
2019-05-19T09:51:20.458Z,16.90
2019-05-19T09:53:48.883Z,17.53
2019-05-19T09:56:17.331Z,17.57
2019-05-19T09:58:45.888Z,17.07
2019-05-19T10:01:14.406Z,15.03
2019-05-19T10:03:42.845Z,17.27
2019-05-19T10:06:11.300Z,15.20
2019-05-19T10:08:39.865Z,18.33
2019-05-19T10:11:14.139Z,17.50
2019-05-19T10:13:42.595Z,17.23
2019-05-19T10:16:11.054Z,16.37
2019-05-19T10:18:39.713Z,24.83
2019-05-19T10:21:08.298Z,16.13
2019-05-19T10:23:36.766Z,14.27
2019-05-19T10:26:05.477Z,17.47
2019-05-19T10:28:33.934Z,17.30
2019-05-19T10:31:02.477Z,14.73
2019-05-19T10:33:30.920Z,16.30
2019-05-19T10:35:59.355Z,18.57
2019-05-19T10:38:31.209Z,15.60
2019-05-19T10:40:59.790Z,15.27
2019-05-19T10:43:28.392Z,14.70
2019-05-19T10:45:59.725Z,12.90
2019-05-19T10:48:28.549Z,15.70
2019-05-19T10:50:56.990Z,17.53
2019-05-19T10:53:27.129Z,12.03
2019-05-19T10:55:55.697Z,14.77
2019-05-19T10:58:24.210Z,11.60
2019-05-19T11:00:52.632Z,13.20
2019-05-19T11:03:21.272Z,17.00
2019-05-19T11:05:49.758Z,11.30
2019-05-19T11:08:19.749Z,12.73
2019-05-19T11:10:48.280Z,13.83
2019-05-19T11:13:16.830Z,11.60
2019-05-19T11:15:45.284Z,9.97
2019-05-19T11:18:13.739Z,12.73
2019-05-19T11:20:42.305Z,12.73
2019-05-19T11:23:10.767Z,14.33
2019-05-19T11:25:51.122Z,15.27
2019-05-19T11:28:09.394Z,14.00
2019-05-19T11:30:37.886Z,11.70
2019-05-19T11:33:06.384Z,12.57
2019-05-19T11:35:34.900Z,14.50
2019-05-19T11:38:06.926Z,10.80
2019-05-19T11:40:36.649Z,12.80
2019-05-19T11:43:06.513Z,12.00
2019-05-19T11:45:35.088Z,15.93
2019-05-19T11:48:03.780Z,12.60
2019-05-19T11:50:33.641Z,17.17
2019-05-19T11:53:02.069Z,16.53
2019-05-19T11:55:30.517Z,13.77
2019-05-19T11:57:59.596Z,14.07
2019-05-19T12:00:28.180Z,14.30
2019-05-19T12:02:56.641Z,12.60
2019-05-19T12:05:25.233Z,15.93
2019-05-19T12:07:53.756Z,11.87
2019-05-19T12:10:22.211Z,13.97
2019-05-19T12:12:50.640Z,13.47
2019-05-19T12:15:20.224Z,14.77
2019-05-19T12:17:49.086Z,12.60
2019-05-19T12:20:17.565Z,18.73
2019-05-19T12:22:46.142Z,13.70
2019-05-19T12:25:14.815Z,15.70
2019-05-19T12:27:43.246Z,17.10
2019-05-19T12:30:17.563Z,14.00
2019-05-19T12:32:46.082Z,11.70
2019-05-19T12:35:17.698Z,16.63
2019-05-19T12:37:46.231Z,14.93
2019-05-19T12:40:18.041Z,12.30
2019-05-19T12:42:46.528Z,15.20
2019-05-19T12:45:18.196Z,17.20
2019-05-19T12:47:46.756Z,15.20
2019-05-19T12:50:15.703Z,13.47
2019-05-19T12:52:44.161Z,15.50
2019-05-19T12:55:12.976Z,13.17
2019-05-19T12:57:41.500Z,14.87
2019-05-19T13:00:10.365Z,15.80
2019-05-19T13:02:38.804Z,13.30
2019-05-19T13:05:07.980Z,14.20
2019-05-19T13:07:36.437Z,14.73
2019-05-19T13:10:09.103Z,13.90
2019-05-19T13:12:37.545Z,14.73
2019-05-19T13:15:07.999Z,13.50
2019-05-19T13:17:36.449Z,16.53
2019-05-19T13:20:06.753Z,16.90
2019-05-19T13:22:35.212Z,14.63
2019-05-19T13:25:05.152Z,13.53
2019-05-19T13:27:33.691Z,14.20
2019-05-19T13:30:02.208Z,15.13
2019-05-19T13:32:30.652Z,56.47
2019-05-19T13:34:59.085Z,15.90
2019-05-19T13:37:27.519Z,17.73
2019-05-19T13:39:56.062Z,17.50
2019-05-19T13:42:24.517Z,16.70
2019-05-19T13:44:53.019Z,17.50
2019-05-19T13:47:21.467Z,17.93
2019-05-19T13:49:49.921Z,17.17
2019-05-19T13:52:18.500Z,14.07
2019-05-19T13:54:46.989Z,16.40
2019-05-19T13:57:15.492Z,15.30
2019-05-19T13:59:43.952Z,15.13
2019-05-19T14:02:12.452Z,13.03
2019-05-19T14:04:40.910Z,14.80
2019-05-19T14:07:09.347Z,16.77
2019-05-19T14:09:41.312Z,15.70
2019-05-19T14:12:09.749Z,17.33
2019-05-19T14:14:50.498Z,18.53
2019-05-19T14:17:18.987Z,18.70
2019-05-19T14:19:47.616Z,18.07
2019-05-19T14:22:16.130Z,14.20
2019-05-19T14:24:44.682Z,15.40
2019-05-19T14:27:28.402Z,12.63
2019-05-19T14:29:45.103Z,14.30
2019-05-19T14:32:13.699Z,14.00
2019-05-19T14:34:42.195Z,20.40
2019-05-19T14:37:10.783Z,13.30
2019-05-19T14:39:39.396Z,13.47
2019-05-19T14:42:09.631Z,14.20
2019-05-19T14:44:38.243Z,18.57
2019-05-19T14:47:08.181Z,14.90
2019-05-19T14:49:36.636Z,15.13
2019-05-19T14:52:06.683Z,15.50
2019-05-19T14:54:35.681Z,13.77
2019-05-19T14:57:04.110Z,14.47
2019-05-19T14:59:32.637Z,15.30
2019-05-19T15:02:01.088Z,13.70
2019-05-19T15:04:29.526Z,13.07
2019-05-19T15:06:57.981Z,17.67
2019-05-19T15:09:26.410Z,14.33
2019-05-19T15:11:54.875Z,14.23
2019-05-19T15:14:26.213Z,14.37
2019-05-19T15:16:54.664Z,16.30
2019-05-19T15:19:23.114Z,12.80
2019-05-19T15:21:51.680Z,14.13
2019-05-19T15:24:20.136Z,16.40
2019-05-19T15:26:48.596Z,18.83
2019-05-19T15:31:52.341Z,13.10
2019-05-19T15:34:20.859Z,18.63
2019-05-19T15:36:49.302Z,13.07
2019-05-19T15:39:17.734Z,13.30
2019-05-19T15:41:46.372Z,12.00
2019-05-19T15:44:14.991Z,14.63
2019-05-19T15:46:43.452Z,14.60
2019-05-19T15:49:11.995Z,15.23
2019-05-19T15:51:40.517Z,13.60
2019-05-19T15:54:08.967Z,12.87
2019-05-19T15:56:37.499Z,12.87
2019-05-19T15:59:05.992Z,23.67
2019-05-19T16:01:34.564Z,13.83
2019-05-19T16:04:03.013Z,13.50
2019-05-19T16:06:31.509Z,15.70
2019-05-19T16:09:01.170Z,15.60
2019-05-19T16:11:29.611Z,18.63
2019-05-19T16:13:58.067Z,12.67
2019-05-19T16:16:26.590Z,13.80
2019-05-19T16:18:55.044Z,10.67
2019-05-19T16:21:23.534Z,14.23
2019-05-19T16:23:52.337Z,13.87
2019-05-19T16:26:20.768Z,13.90
2019-05-19T16:28:49.221Z,16.13
2019-05-19T16:31:17.768Z,14.97
2019-05-19T16:33:49.255Z,12.43
2019-05-19T16:36:17.889Z,12.67
2019-05-19T16:38:46.348Z,13.60
2019-05-19T16:41:14.815Z,12.90
2019-05-19T16:43:43.314Z,15.63
2019-05-19T16:46:11.741Z,11.53
2019-05-19T16:48:40.199Z,11.70
2019-05-19T16:51:08.698Z,15.27
2019-05-19T16:53:37.797Z,14.03
2019-05-19T16:56:06.233Z,12.17
2019-05-19T16:58:44.882Z,14.77
2019-05-19T17:01:05.142Z,11.50
2019-05-19T17:03:33.603Z,13.77
2019-05-19T17:06:02.030Z,12.00
2019-05-19T17:08:30.601Z,15.33
2019-05-19T17:10:59.044Z,12.57
2019-05-19T17:13:27.478Z,12.00
2019-05-19T17:15:56.606Z,13.97
2019-05-19T17:18:25.055Z,14.07
2019-05-19T17:20:54.951Z,14.43
2019-05-19T17:23:23.385Z,22.33
2019-05-19T17:25:51.822Z,13.27
2019-05-19T17:28:20.277Z,18.30
2019-05-19T17:30:48.722Z,13.70
2019-05-19T17:39:21.462Z,15.57
2019-05-19T17:41:50.074Z,14.90
2019-05-19T17:44:18.529Z,21.10
2019-05-19T17:46:46.960Z,16.77
2019-05-19T17:49:15.405Z,16.50
2019-05-19T17:51:44.285Z,16.30
2019-05-19T17:54:12.715Z,15.70
2019-05-19T17:56:41.965Z,15.90
2019-05-19T17:59:16.639Z,16.00
2019-05-19T18:01:41.758Z,15.20
2019-05-19T18:04:10.197Z,15.47
2019-05-19T18:06:38.629Z,18.10
2019-05-19T18:09:07.092Z,17.73
2019-05-19T18:11:35.702Z,16.03
2019-05-19T18:14:04.349Z,16.70
2019-05-19T18:16:33.049Z,14.03
2019-05-19T18:19:01.476Z,14.30
2019-05-19T18:21:29.933Z,13.40
2019-05-19T18:23:58.373Z,15.57
2019-05-19T18:26:26.822Z,16.50
2019-05-19T18:28:56.046Z,19.57
2019-05-19T18:31:24.872Z,18.53
2019-05-19T18:33:53.353Z,17.87
2019-05-19T18:36:21.793Z,17.00
2019-05-19T18:38:50.225Z,19.00
2019-05-19T18:41:18.706Z,15.47
2019-05-19T18:43:47.212Z,18.93
2019-05-19T18:46:15.657Z,16.37
2019-05-19T18:48:44.092Z,17.90
2019-05-19T18:52:33.169Z,17.90
2019-05-19T18:55:01.682Z,17.33
2019-05-19T18:57:30.125Z,19.37
2019-05-19T19:00:01.310Z,17.93
2019-05-19T19:02:32.667Z,17.17
2019-05-19T19:05:01.109Z,19.17
2019-05-19T19:07:34.373Z,18.13
2019-05-19T19:10:03.833Z,21.07
2019-05-19T19:12:32.273Z,18.40
2019-05-19T19:15:00.898Z,23.00
2019-05-19T19:17:30.979Z,20.10
2019-05-19T19:19:59.620Z,22.40
2019-05-19T19:22:28.210Z,16.17
2019-05-19T19:24:56.645Z,22.43
2019-05-19T19:27:25.170Z,18.90
2019-05-19T19:30:03.122Z,18.50
2019-05-19T19:32:23.788Z,23.60
2019-05-19T19:34:52.230Z,21.73
2019-05-19T19:37:21.647Z,20.40
2019-05-19T19:39:50.157Z,22.23
2019-05-19T19:42:19.048Z,20.67
2019-05-19T19:44:47.483Z,26.00
2019-05-19T19:47:15.930Z,22.60
2019-05-19T19:49:44.357Z,25.47
2019-05-19T19:52:12.806Z,22.80
2019-05-19T19:54:41.314Z,25.47
2019-05-19T19:57:09.916Z,34.63
2019-05-19T19:59:39.793Z,22.47
2019-05-19T20:02:08.385Z,23.77
2019-05-19T20:04:36.932Z,22.17
2019-05-19T20:07:06.926Z,24.60
2019-05-19T20:09:35.353Z,27.93
2019-05-19T20:12:03.790Z,23.13
2019-05-19T20:14:32.281Z,26.83
2019-05-19T20:17:00.733Z,28.50
2019-05-19T20:19:29.269Z,27.00
2019-05-19T20:21:57.871Z,28.70
2019-05-19T20:24:27.785Z,30.20
2019-05-19T20:26:56.213Z,28.13
2019-05-19T20:29:24.704Z,27.97
2019-05-19T20:31:53.133Z,33.10
2019-05-19T20:34:23.122Z,31.77
2019-05-19T20:36:51.627Z,35.50
2019-05-19T20:39:20.219Z,28.03
2019-05-19T20:41:48.674Z,27.20
2019-05-19T20:44:17.126Z,26.50
2019-05-19T20:46:45.561Z,44.33
2019-05-19T20:49:14.010Z,38.50
2019-05-19T20:51:42.446Z,36.47
2019-05-19T20:54:11.007Z,31.30
2019-05-19T20:56:39.463Z,36.87
2019-05-19T20:59:07.905Z,39.60
2019-05-19T21:01:36.426Z,37.10
2019-05-19T21:04:04.930Z,36.30
2019-05-19T21:06:33.362Z,32.37
2019-05-19T21:09:04.090Z,36.50
2019-05-19T21:11:32.522Z,34.90
2019-05-19T21:14:00.994Z,33.03
2019-05-19T21:16:29.467Z,35.83
2019-05-19T21:18:57.941Z,32.57
2019-05-19T21:21:26.401Z,31.23
2019-05-19T21:23:56.021Z,32.07
2019-05-19T21:26:24.454Z,34.80
2019-05-19T21:28:52.898Z,34.80
2019-05-19T21:31:21.354Z,32.90
2019-05-19T21:33:49.788Z,32.10
2019-05-19T21:36:18.233Z,32.37
2019-05-19T21:38:46.707Z,31.40
2019-05-19T21:41:15.161Z,36.60
2019-05-19T21:43:43.594Z,32.33
2019-05-19T21:46:12.034Z,31.73
2019-05-19T21:48:41.032Z,33.30
2019-05-19T21:51:09.475Z,33.63
2019-05-19T21:53:37.913Z,36.90
2019-05-19T21:56:06.354Z,35.70
2019-05-19T21:58:34.790Z,35.00
2019-05-19T22:01:03.250Z,37.77
2019-05-19T22:03:31.743Z,31.70
2019-05-19T22:06:00.182Z,36.90
2019-05-19T22:08:28.618Z,38.43
2019-05-19T22:10:57.057Z,38.87
2019-05-19T22:13:25.497Z,36.30
2019-05-19T22:15:53.946Z,34.83
2019-05-19T22:18:22.372Z,33.57
2019-05-19T22:20:50.864Z,35.53
2019-05-19T22:23:19.350Z,32.33
2019-05-19T22:25:47.990Z,37.10
2019-05-19T22:28:16.426Z,35.33
2019-05-19T22:30:44.934Z,38.83
2019-05-19T22:33:13.361Z,38.50
2019-05-19T22:35:41.824Z,39.10
2019-05-19T22:38:10.314Z,43.47
2019-05-19T22:40:38.762Z,42.73
2019-05-19T22:43:07.202Z,43.00
2019-05-19T22:45:35.630Z,39.20
2019-05-19T22:48:04.071Z,43.33
2019-05-19T22:50:32.511Z,37.40
2019-05-19T22:53:01.066Z,48.40
2019-05-19T22:55:29.499Z,46.70
2019-05-19T22:57:57.981Z,46.57
2019-05-19T23:00:26.955Z,43.63
2019-05-19T23:02:55.462Z,46.33
2019-05-19T23:05:23.898Z,45.87
2019-05-19T23:07:52.337Z,44.27
2019-05-19T23:10:21.110Z,41.43
2019-05-19T23:12:49.558Z,44.80
2019-05-19T23:15:18.459Z,46.43
2019-05-19T23:17:46.905Z,45.67
2019-05-19T23:20:15.879Z,53.27
2019-05-19T23:22:44.314Z,43.73
2019-05-19T23:25:12.914Z,43.33
2019-05-19T23:27:41.366Z,50.83
2019-05-19T23:30:10.850Z,48.87
2019-05-19T23:32:39.291Z,49.80
2019-05-19T23:35:07.894Z,49.47
2019-05-19T23:37:36.329Z,46.43
2019-05-19T23:40:09.062Z,53.97
2019-05-19T23:42:37.506Z,49.23
2019-05-19T23:45:07.882Z,51.83
2019-05-19T23:47:36.327Z,50.33
2019-05-19T23:50:06.480Z,57.07
2019-05-19T23:52:34.913Z,52.50
2019-05-19T23:55:04.798Z,56.60
2019-05-19T23:57:33.237Z,50.23
